Gahagan, Louisiana
Current Conditions -  °F | °C
As of 9:15 AM on Thursday 30 Oct 2014 (Local Time) from KIER Reporting Station
Clear Clear  
Wind Chill: 57°   Ceiling: Unl
Heat Index: 57°   Visibility: 10mi
Dew Point: 51°   Wind: 3mph
Humidity: 82%   Direction: 60°ENE
Pressure: 30.18"   Gusts: NA
Location:  32.1001°N, 93.2912°W
Report Text: KIER 301415Z AUTO 06003KT 10SM CLR 14/11 A3018 RMK AO2 T01370107
Loading
Personal Weather Stations






























Interactive Weather Map
Tropical Storm Tracking
New forecast layout! Learn more

10-Day Weather Forecast

Advertisements
Track Severe Weather on mobile